Kezdőlap
METAR-TAF:

METAR-TAF

Repülőterek :

Piacenza, Olaszország

földrajzi szélesség: 44-55N, földrajzi hosszúság: 009-44E, magasság: 134 m

Jelenlegi meteorológiai megfigyelések

A jelentés 1 órával és 1 perccel ezelõtt készült, 12:55 UTC
Észak-északnyugati szél 1 kt
Hőmérséklet 5°C
Páratartalom 100%
Légköri nyomás 1015 hPa
Látótávolság: 3000 m
Szakadozott felhőzet 4000 lábon
Szórványos felhőzet 6000 lábon
Párásság

METAR: LIMS 151255Z 33001KT 3000 BR BKN040 SCT060 05/05 Q1015 RMK OVC VIS MIN 3000 WIND THR30 25001KT YLO

Idő: 14:56 (13:56 UTC)


TAF: hiányzik

Meteorológiai megfigyelések és előrejelzések több, mint 4000 repülőtéren (METAR és TAF jelentéseket).

A térképen piros és sárga pontok jelzik az elérhető meteorológiai állomásokat.

Mozgassa az egeret a pont fölött, hogy megjelenjen az állomás neve.

Azután kattintson az időjárási megfigyelések és előrejelzések megtekintéséhez.

A térkép megváltoztatása: kattintson a fekete keresztel jelölt zöld gombra ráközelítéshez, a vonallal jelölt zöld gombra távolításhoz, vagy a zöld nyilakra a szomszédos térképek eléréséhez.


METAR-TAF: